createdAt,value
2019-05-29T00:02:05.968Z,1.27
2019-05-29T00:04:32.539Z,1.42
2019-05-29T00:06:58.983Z,1.17
2019-05-29T00:09:25.390Z,1.40
2019-05-29T00:11:51.818Z,1.40
2019-05-29T00:14:26.919Z,1.15
2019-05-29T00:16:46.465Z,1.10
2019-05-29T00:19:12.859Z,1.20
2019-05-29T00:21:39.226Z,1.30
2019-05-29T00:24:06.314Z,1.10
2019-05-29T00:26:32.721Z,1.20
2019-05-29T00:28:59.003Z,1.40
2019-05-29T00:31:25.262Z,1.15
2019-05-29T00:33:51.519Z,1.75
2019-05-29T00:36:17.817Z,1.35
2019-05-29T00:38:44.332Z,1.37
2019-05-29T00:41:10.867Z,1.35
2019-05-29T00:43:37.267Z,1.30
2019-05-29T00:46:03.783Z,1.32
2019-05-29T00:48:30.135Z,1.30
2019-05-29T00:50:56.418Z,1.25
2019-05-29T00:53:22.758Z,1.25
2019-05-29T00:55:49.020Z,1.52
2019-05-29T00:58:15.386Z,1.40
2019-05-29T01:00:41.664Z,1.30
2019-05-29T01:03:08.051Z,1.60
2019-05-29T01:05:34.299Z,1.98
2019-05-29T01:08:00.571Z,1.85
2019-05-29T01:10:27.134Z,1.70
2019-05-29T01:12:53.608Z,1.40
2019-05-29T01:15:20.042Z,1.37
2019-05-29T01:17:46.507Z,1.60
2019-05-29T01:20:13.997Z,1.50
2019-05-29T01:22:40.539Z,1.72
2019-05-29T01:25:06.917Z,1.32
2019-05-29T01:27:33.399Z,1.27
2019-05-29T01:29:59.778Z,1.20
2019-05-29T01:32:26.147Z,1.30
2019-05-29T01:34:52.416Z,1.85
2019-05-29T01:37:18.684Z,1.60
2019-05-29T01:39:44.978Z,1.47
2019-05-29T01:42:11.196Z,1.60
2019-05-29T01:44:37.495Z,1.67
2019-05-29T01:47:03.906Z,1.30
2019-05-29T01:49:30.226Z,1.80
2019-05-29T01:51:56.616Z,1.50
2019-05-29T01:54:23.809Z,1.70
2019-05-29T01:56:50.240Z,1.98
2019-05-29T01:59:17.643Z,1.70
2019-05-29T02:01:43.996Z,1.60
2019-05-29T02:04:10.238Z,1.70
2019-05-29T02:06:36.530Z,1.82
2019-05-29T02:09:05.190Z,1.60
2019-05-29T02:11:32.261Z,1.40
2019-05-29T02:13:59.658Z,1.75
2019-05-29T02:16:26.921Z,1.67
2019-05-29T02:18:53.438Z,1.72
2019-05-29T02:21:20.056Z,1.75
2019-05-29T02:23:46.972Z,1.50
2019-05-29T02:26:13.349Z,1.82
2019-05-29T02:28:39.878Z,1.92
2019-05-29T02:31:06.210Z,1.47
2019-05-29T02:33:32.596Z,1.60
2019-05-29T02:35:58.895Z,1.50
2019-05-29T02:38:27.042Z,1.42
2019-05-29T02:40:53.308Z,1.70
2019-05-29T02:43:21.278Z,1.60
2019-05-29T02:45:54.291Z,1.70
2019-05-29T02:48:16.203Z,1.70
2019-05-29T02:50:42.702Z,1.47
2019-05-29T02:53:09.050Z,1.72
2019-05-29T02:55:35.478Z,1.82
2019-05-29T02:58:01.756Z,1.37
2019-05-29T03:00:52.749Z,1.30
2019-05-29T03:03:21.574Z,1.22
2019-05-29T03:05:48.030Z,1.82
2019-05-29T03:08:14.549Z,1.40
2019-05-29T03:10:40.886Z,1.60
2019-05-29T03:13:07.353Z,1.60
2019-05-29T03:15:33.861Z,1.60
2019-05-29T03:18:00.317Z,1.60
2019-05-29T03:20:28.006Z,1.60
2019-05-29T03:22:54.525Z,1.65
2019-05-29T03:25:20.849Z,1.60
2019-05-29T03:27:47.211Z,1.57
2019-05-29T03:30:13.687Z,1.45
2019-05-29T03:32:47.316Z,1.52
2019-05-29T03:35:08.411Z,1.45
2019-05-29T03:37:34.829Z,1.65
2019-05-29T03:40:01.676Z,1.37
2019-05-29T03:42:28.368Z,1.30
2019-05-29T03:44:54.893Z,1.40
2019-05-29T03:47:21.247Z,1.30
2019-05-29T03:49:47.526Z,1.67
2019-05-29T03:52:13.889Z,1.52
2019-05-29T03:54:40.265Z,1.80
2019-05-29T03:57:06.711Z,1.65
2019-05-29T03:59:34.640Z,1.57
2019-05-29T04:02:01.114Z,1.70
2019-05-29T04:04:28.926Z,1.75
2019-05-29T04:06:55.534Z,1.80
2019-05-29T04:09:21.938Z,1.65
2019-05-29T04:11:48.389Z,1.60
2019-05-29T04:14:15.151Z,1.98
2019-05-29T04:16:58.482Z,1.70
2019-05-29T04:19:11.043Z,1.80
2019-05-29T04:21:39.895Z,2.05
2019-05-29T04:24:06.308Z,1.90
2019-05-29T04:26:37.883Z,2.00
2019-05-29T04:29:04.423Z,1.90
2019-05-29T04:31:32.363Z,1.92
2019-05-29T04:33:58.950Z,2.10
2019-05-29T04:36:28.611Z,1.80
2019-05-29T04:38:53.568Z,1.77
2019-05-29T04:41:19.825Z,1.90
2019-05-29T04:43:46.056Z,2.02
2019-05-29T04:46:12.356Z,1.80
2019-05-29T04:48:40.333Z,1.70
2019-05-29T04:51:07.130Z,1.65
2019-05-29T04:53:33.754Z,1.67
2019-05-29T04:56:01.501Z,1.50
2019-05-29T04:58:28.763Z,1.42
2019-05-29T05:00:58.979Z,1.62
2019-05-29T05:03:23.198Z,1.60
2019-05-29T05:05:49.477Z,1.12
2019-05-29T05:08:15.952Z,1.40
2019-05-29T05:10:42.519Z,1.45
2019-05-29T05:13:09.070Z,1.35
2019-05-29T05:15:36.026Z,1.60
2019-05-29T05:18:04.215Z,1.40
2019-05-29T05:20:31.876Z,1.90
2019-05-29T05:22:58.351Z,1.50
2019-05-29T05:25:24.716Z,1.40
2019-05-29T05:27:51.211Z,1.52
2019-05-29T05:30:17.648Z,1.30
2019-05-29T05:32:43.958Z,1.10
2019-05-29T05:35:14.010Z,1.27
2019-05-29T05:37:38.875Z,1.60
2019-05-29T05:40:05.437Z,1.10
2019-05-29T05:42:32.803Z,1.15
2019-05-29T05:44:59.153Z,1.27
2019-05-29T05:47:43.107Z,1.22
2019-05-29T05:49:53.883Z,1.65
2019-05-29T05:52:20.477Z,1.60
2019-05-29T05:54:46.865Z,1.60
2019-05-29T05:57:15.149Z,1.55
2019-05-29T05:59:42.067Z,1.75
2019-05-29T06:02:08.849Z,1.85
2019-05-29T06:04:35.911Z,1.75
2019-05-29T06:07:02.495Z,1.82
2019-05-29T06:09:28.744Z,2.05
2019-05-29T06:11:55.164Z,1.60
2019-05-29T06:14:21.702Z,1.67
2019-05-29T06:16:47.961Z,1.55
2019-05-29T06:19:14.412Z,1.20
2019-05-29T06:21:40.949Z,1.00
2019-05-29T06:24:07.407Z,1.20
2019-05-29T06:26:34.800Z,1.10
2019-05-29T06:29:04.263Z,1.05
2019-05-29T06:31:30.869Z,1.10
2019-05-29T06:33:57.241Z,1.30
2019-05-29T06:36:23.633Z,1.20
2019-05-29T06:38:49.888Z,1.47
2019-05-29T06:41:16.220Z,1.05
2019-05-29T06:43:42.478Z,1.20
2019-05-29T06:46:08.717Z,1.30
2019-05-29T06:48:53.458Z,1.27
2019-05-29T06:51:03.409Z,1.07
2019-05-29T06:53:29.962Z,1.20
2019-05-29T06:55:57.629Z,1.25
2019-05-29T06:58:24.779Z,1.07
2019-05-29T07:00:51.330Z,1.05
2019-05-29T07:03:17.833Z,1.02
2019-05-29T07:05:50.607Z,1.00
2019-05-29T07:08:19.177Z,1.20
2019-05-29T07:10:42.478Z,1.05
2019-05-29T07:13:09.193Z,1.20
2019-05-29T07:15:36.493Z,1.30
2019-05-29T07:18:03.219Z,0.90
2019-05-29T07:20:29.643Z,0.85
2019-05-29T07:22:56.140Z,0.90
2019-05-29T07:25:22.471Z,1.25
2019-05-29T07:27:48.750Z,1.20
2019-05-29T07:30:15.887Z,1.17
2019-05-29T07:32:43.293Z,1.10
2019-05-29T07:35:10.777Z,1.17
2019-05-29T07:37:37.718Z,1.00
2019-05-29T07:40:06.550Z,1.07
2019-05-29T07:42:32.917Z,1.22
2019-05-29T07:44:59.291Z,1.10
2019-05-29T07:47:25.819Z,1.22
2019-05-29T07:49:52.373Z,0.95
2019-05-29T07:52:18.865Z,1.10
2019-05-29T07:54:45.703Z,1.10
2019-05-29T07:57:12.215Z,1.20
2019-05-29T07:59:38.660Z,1.07
2019-05-29T08:02:04.900Z,1.17
2019-05-29T08:04:31.458Z,1.10
2019-05-29T08:06:58.058Z,1.30
2019-05-29T08:09:24.243Z,1.00
2019-05-29T08:11:50.526Z,1.25
2019-05-29T08:14:19.191Z,1.40
2019-05-29T08:16:46.041Z,0.95
2019-05-29T08:19:12.569Z,1.20
2019-05-29T08:21:41.034Z,1.20
2019-05-29T08:24:07.598Z,1.10
2019-05-29T08:26:33.849Z,0.98
2019-05-29T08:29:00.834Z,1.30
2019-05-29T08:31:27.347Z,1.22
2019-05-29T08:33:53.675Z,1.10
2019-05-29T08:36:20.315Z,1.27
2019-05-29T08:38:49.300Z,1.00
2019-05-29T08:41:15.689Z,1.22
2019-05-29T08:43:42.517Z,1.15
2019-05-29T08:46:08.903Z,0.90
2019-05-29T08:48:38.821Z,1.20
2019-05-29T08:51:05.421Z,1.32
2019-05-29T08:53:32.054Z,1.30
2019-05-29T08:55:58.573Z,1.02
2019-05-29T08:58:24.910Z,1.02
2019-05-29T09:00:53.936Z,0.85
2019-05-29T09:03:19.423Z,0.88
2019-05-29T09:05:46.676Z,1.20
2019-05-29T09:08:13.006Z,1.10
2019-05-29T09:10:43.103Z,1.05
2019-05-29T09:13:09.760Z,1.20
2019-05-29T09:15:36.095Z,0.98
2019-05-29T09:18:02.482Z,1.25
2019-05-29T09:20:50.168Z,0.98
2019-05-29T09:22:57.056Z,1.20
2019-05-29T09:25:23.411Z,0.95
2019-05-29T09:27:49.732Z,0.95
2019-05-29T09:30:17.138Z,1.10
2019-05-29T09:32:51.730Z,1.22
2019-05-29T09:35:15.522Z,0.90
2019-05-29T09:37:41.398Z,1.10
2019-05-29T09:40:19.117Z,1.07
2019-05-29T09:42:45.539Z,1.10
2019-05-29T09:45:12.039Z,0.90
2019-05-29T09:47:38.478Z,0.82
2019-05-29T09:50:08.240Z,0.90
2019-05-29T09:52:35.020Z,1.10
2019-05-29T09:55:02.543Z,0.88
2019-05-29T09:57:29.798Z,0.95
2019-05-29T09:59:58.100Z,0.95
2019-05-29T10:02:24.778Z,1.17
2019-05-29T10:04:51.387Z,0.90
2019-05-29T10:07:17.722Z,0.93
2019-05-29T10:09:44.009Z,1.00
2019-05-29T10:12:10.442Z,0.98
2019-05-29T10:14:36.780Z,0.78
2019-05-29T10:17:10.997Z,0.78
2019-05-29T10:19:31.651Z,0.80
2019-05-29T10:22:00.095Z,0.70
2019-05-29T10:24:26.353Z,0.72
2019-05-29T10:26:52.700Z,1.02
2019-05-29T10:29:19.053Z,0.90
2019-05-29T10:31:47.237Z,0.70
2019-05-29T10:34:13.706Z,0.90
2019-05-29T10:36:39.936Z,0.80
2019-05-29T10:39:06.995Z,1.00
2019-05-29T10:41:33.520Z,0.90
2019-05-29T10:43:59.827Z,1.00
2019-05-29T10:46:26.214Z,1.00
2019-05-29T10:48:55.982Z,1.30
2019-05-29T10:51:20.999Z,1.20
2019-05-29T10:53:49.619Z,0.90
2019-05-29T10:56:15.557Z,1.10
2019-05-29T10:58:49.767Z,1.30
2019-05-29T11:01:10.284Z,1.35
2019-05-29T11:03:36.921Z,1.25
2019-05-29T11:06:03.403Z,1.30
2019-05-29T11:08:29.756Z,1.20
2019-05-29T11:10:56.369Z,1.10
2019-05-29T11:13:22.842Z,1.10
2019-05-29T11:15:50.803Z,1.30
2019-05-29T11:18:17.766Z,1.22
2019-05-29T11:20:44.253Z,1.10
2019-05-29T11:23:10.843Z,1.30
2019-05-29T11:25:37.191Z,1.20
2019-05-29T11:28:04.024Z,1.20
2019-05-29T11:30:30.271Z,1.00
2019-05-29T11:32:57.603Z,1.40
2019-05-29T11:35:24.890Z,1.20
2019-05-29T11:37:52.519Z,1.00
2019-05-29T11:40:19.383Z,1.25
2019-05-29T11:42:45.732Z,1.25
2019-05-29T11:45:12.404Z,0.82
2019-05-29T11:47:38.636Z,1.07
2019-05-29T11:50:19.051Z,1.30
2019-05-29T11:52:42.748Z,1.17
2019-05-29T11:55:09.644Z,1.00
2019-05-29T11:57:39.495Z,0.95
2019-05-29T12:00:18.056Z,0.85
2019-05-29T12:02:35.563Z,1.10
2019-05-29T12:05:05.241Z,1.05
2019-05-29T12:07:31.777Z,1.30
2019-05-29T12:09:59.490Z,1.00
2019-05-29T12:12:25.886Z,1.10
2019-05-29T12:15:00.359Z,1.30
2019-05-29T12:17:20.499Z,1.20
2019-05-29T12:19:47.655Z,1.10
2019-05-29T12:22:14.201Z,1.15
2019-05-29T12:24:42.615Z,1.20
2019-05-29T12:27:09.065Z,1.10
2019-05-29T12:29:35.540Z,1.10
2019-05-29T12:32:04.189Z,1.20
2019-05-29T12:34:30.367Z,1.07
2019-05-29T12:36:57.348Z,0.90
2019-05-29T12:39:23.895Z,0.90
2019-05-29T12:41:50.159Z,1.05
2019-05-29T12:44:16.403Z,1.07
2019-05-29T12:46:42.798Z,1.32
2019-05-29T12:49:09.249Z,1.15
2019-05-29T12:51:35.667Z,1.00
2019-05-29T12:54:02.275Z,1.10
2019-05-29T12:56:28.885Z,0.95
2019-05-29T12:58:56.072Z,1.17
2019-05-29T13:01:22.804Z,1.22
2019-05-29T13:03:49.218Z,1.10
2019-05-29T13:06:15.912Z,1.00
2019-05-29T13:08:42.100Z,1.00
2019-05-29T13:11:08.654Z,1.07
2019-05-29T13:13:34.931Z,1.00
2019-05-29T13:16:02.910Z,1.10
2019-05-29T13:18:30.438Z,1.07
2019-05-29T13:20:56.796Z,1.10
2019-05-29T13:23:23.248Z,0.90
2019-05-29T13:25:49.560Z,1.02
2019-05-29T13:28:16.382Z,1.00
2019-05-29T13:30:42.691Z,0.90
2019-05-29T13:33:09.303Z,0.90
2019-05-29T13:35:35.917Z,1.00
2019-05-29T13:38:03.308Z,1.02
2019-05-29T13:40:29.886Z,1.00
2019-05-29T13:42:56.283Z,1.10
2019-05-29T13:45:22.961Z,1.00
2019-05-29T13:47:49.516Z,0.95
2019-05-29T13:50:19.384Z,0.93
2019-05-29T13:52:45.722Z,1.10
2019-05-29T13:55:13.057Z,1.00
2019-05-29T13:57:40.204Z,1.07
2019-05-29T14:00:30.219Z,1.00
2019-05-29T14:02:39.100Z,1.32
2019-05-29T14:05:06.972Z,1.00
2019-05-29T14:07:36.228Z,1.10
2019-05-29T14:10:06.444Z,1.10
2019-05-29T14:12:36.114Z,1.05
2019-05-29T14:15:08.265Z,1.00
2019-05-29T14:17:34.895Z,1.10
2019-05-29T14:20:02.661Z,1.00
2019-05-29T14:22:29.322Z,1.27
2019-05-29T14:24:55.847Z,1.30
2019-05-29T14:27:22.104Z,1.20
2019-05-29T14:29:48.618Z,1.27
2019-05-29T14:32:15.333Z,1.17
2019-05-29T14:34:42.751Z,1.35
2019-05-29T14:37:09.851Z,1.12
2019-05-29T14:39:36.721Z,1.20
2019-05-29T14:42:04.299Z,1.05
2019-05-29T14:44:31.073Z,1.55
2019-05-29T14:46:57.428Z,1.30
2019-05-29T14:49:26.830Z,1.30
2019-05-29T14:51:52.267Z,1.25
2019-05-29T14:54:18.597Z,1.10
2019-05-29T14:56:45.076Z,1.10
2019-05-29T14:59:13.458Z,1.60
2019-05-29T15:01:40.366Z,1.30
2019-05-29T15:04:07.604Z,1.67
2019-05-29T15:06:34.162Z,1.67
2019-05-29T15:09:00.523Z,1.70
2019-05-29T15:11:26.784Z,1.10
2019-05-29T15:14:06.094Z,1.40
2019-05-29T15:16:32.556Z,1.32
2019-05-29T15:18:58.825Z,1.70
2019-05-29T15:21:25.151Z,1.72
2019-05-29T15:23:51.592Z,1.80
2019-05-29T15:26:17.942Z,1.60
2019-05-29T15:28:44.209Z,1.70
2019-05-29T15:31:10.608Z,1.50
2019-05-29T15:33:37.008Z,1.50
2019-05-29T15:36:03.557Z,1.70
2019-05-29T15:38:36.828Z,1.40
2019-05-29T15:41:03.870Z,1.40
2019-05-29T15:43:30.353Z,1.40
2019-05-29T15:45:56.723Z,1.25
2019-05-29T15:48:22.999Z,1.30
2019-05-29T15:50:49.246Z,1.30
2019-05-29T15:53:15.619Z,1.20
2019-05-29T15:55:42.304Z,1.00
2019-05-29T15:58:09.125Z,1.02
2019-05-29T16:00:35.987Z,1.25
2019-05-29T16:03:02.655Z,1.40
2019-05-29T16:05:29.206Z,1.47
2019-05-29T16:07:57.428Z,1.50
2019-05-29T16:10:24.104Z,1.35
2019-05-29T16:12:50.511Z,1.65
2019-05-29T16:15:17.604Z,1.77
2019-05-29T16:17:44.103Z,1.32
2019-05-29T16:20:12.156Z,1.50
2019-05-29T16:22:38.811Z,1.30
2019-05-29T16:25:06.750Z,1.20
2019-05-29T16:27:33.141Z,1.10
2019-05-29T16:29:59.837Z,1.80
2019-05-29T16:32:26.438Z,1.60
2019-05-29T16:34:52.796Z,1.32
2019-05-29T16:37:19.377Z,1.10
2019-05-29T16:39:45.781Z,1.07
2019-05-29T16:42:12.256Z,1.07
2019-05-29T16:44:38.568Z,1.27
2019-05-29T16:47:04.982Z,1.20
2019-05-29T16:49:31.355Z,1.30
2019-05-29T16:51:57.766Z,1.20
2019-05-29T16:54:24.124Z,1.00
2019-05-29T16:56:50.455Z,1.10
2019-05-29T16:59:17.013Z,0.88
2019-05-29T17:01:43.512Z,0.95
2019-05-29T17:04:10.843Z,1.10
2019-05-29T17:06:37.466Z,0.93
2019-05-29T17:09:09.077Z,1.20
2019-05-29T17:14:12.581Z,1.00
2019-05-29T17:16:39.415Z,0.72
2019-05-29T17:19:05.768Z,0.90
2019-05-29T17:21:32.245Z,1.10
2019-05-29T17:23:58.718Z,1.20
2019-05-29T17:26:25.076Z,1.10
2019-05-29T17:28:51.738Z,1.05
2019-05-29T17:31:18.921Z,1.10
2019-05-29T17:33:45.223Z,1.20
2019-05-29T17:36:11.674Z,1.00
2019-05-29T17:38:38.173Z,1.00
2019-05-29T17:41:05.032Z,1.05
2019-05-29T17:43:31.389Z,1.00
2019-05-29T17:45:57.612Z,0.90
2019-05-29T17:48:23.982Z,1.20
2019-05-29T17:50:50.353Z,1.30
2019-05-29T17:53:17.823Z,0.95
2019-05-29T17:55:46.712Z,1.17
2019-05-29T17:58:12.618Z,1.02
2019-05-29T18:00:39.169Z,1.22
2019-05-29T18:03:05.608Z,1.40
2019-05-29T18:05:32.112Z,1.30
2019-05-29T18:08:01.646Z,1.20
2019-05-29T18:10:27.179Z,1.02
2019-05-29T18:12:53.657Z,1.17
2019-05-29T18:15:21.493Z,1.30
2019-05-29T18:17:47.886Z,1.20
2019-05-29T18:20:15.393Z,1.02
2019-05-29T18:22:41.830Z,1.20
2019-05-29T18:25:08.955Z,1.10
2019-05-29T18:27:35.242Z,1.10
2019-05-29T18:30:01.628Z,1.10
2019-05-29T18:32:29.053Z,1.10
2019-05-29T18:34:56.664Z,1.22
2019-05-29T18:37:24.251Z,1.25
2019-05-29T18:39:50.979Z,1.00
2019-05-29T18:42:17.337Z,1.10
2019-05-29T18:44:43.638Z,0.88
2019-05-29T18:47:10.299Z,1.40
2019-05-29T18:49:36.727Z,1.45
2019-05-29T18:52:03.253Z,1.00
2019-05-29T18:54:30.117Z,1.30
2019-05-29T18:57:13.822Z,1.27
2019-05-29T18:59:25.470Z,1.40
2019-05-29T19:01:51.920Z,1.37
2019-05-29T19:04:18.913Z,1.10
2019-05-29T19:06:45.566Z,1.20
2019-05-29T19:09:12.103Z,2.00
2019-05-29T19:11:38.492Z,2.02
2019-05-29T19:14:05.076Z,1.80
2019-05-29T19:16:32.212Z,2.00
2019-05-29T19:18:59.165Z,1.98
2019-05-29T19:21:26.379Z,2.47
2019-05-29T19:23:52.919Z,2.35
2019-05-29T19:26:24.652Z,2.40
2019-05-29T19:28:48.494Z,2.10
2019-05-29T19:31:19.325Z,2.25
2019-05-29T19:33:46.509Z,2.27
2019-05-29T19:36:13.746Z,2.30
2019-05-29T19:38:40.409Z,2.40
2019-05-29T19:41:06.940Z,2.80
2019-05-29T19:43:34.518Z,3.27
2019-05-29T19:46:01.102Z,2.80
2019-05-29T19:48:28.725Z,2.60
2019-05-29T19:51:02.085Z,2.50
2019-05-29T19:53:29.571Z,2.87
2019-05-29T19:55:57.639Z,3.00
2019-05-29T19:58:25.597Z,3.40
2019-05-29T20:00:51.881Z,3.40
2019-05-29T20:03:20.183Z,3.35
2019-05-29T20:05:47.229Z,2.90
2019-05-29T20:08:13.470Z,2.83
2019-05-29T20:10:39.852Z,2.87
2019-05-29T20:13:06.116Z,3.25
2019-05-29T20:15:32.507Z,2.40
2019-05-29T20:17:58.813Z,2.30
2019-05-29T20:20:25.265Z,2.60
2019-05-29T20:22:52.081Z,2.40
2019-05-29T20:25:18.510Z,2.15
2019-05-29T20:27:44.870Z,2.00
2019-05-29T20:30:15.684Z,2.05
2019-05-29T20:32:42.980Z,1.70
2019-05-29T20:35:09.539Z,1.70
2019-05-29T20:37:38.231Z,1.65
2019-05-29T20:40:05.313Z,1.60
2019-05-29T20:42:32.164Z,1.85
2019-05-29T20:45:00.288Z,1.72
2019-05-29T20:47:33.366Z,1.77
2019-05-29T20:50:00.680Z,2.30
2019-05-29T20:52:37.706Z,1.85
2019-05-29T20:55:06.246Z,2.10
2019-05-29T20:57:34.011Z,2.20
2019-05-29T21:00:00.369Z,2.20
2019-05-29T21:02:26.703Z,2.27
2019-05-29T21:04:53.285Z,2.65
2019-05-29T21:07:19.533Z,2.10
2019-05-29T21:09:46.253Z,2.52
2019-05-29T21:12:12.633Z,2.10
2019-05-29T21:14:39.672Z,2.20
2019-05-29T21:17:09.900Z,2.80
2019-05-29T21:19:36.500Z,2.47
2019-05-29T21:22:03.019Z,2.67
2019-05-29T21:24:30.356Z,2.45
2019-05-29T21:26:58.143Z,2.35
2019-05-29T21:29:24.391Z,2.27
2019-05-29T21:31:50.725Z,2.22
2019-05-29T21:34:19.209Z,2.30
2019-05-29T21:36:46.405Z,2.10
2019-05-29T21:39:12.715Z,2.40
2019-05-29T21:41:40.345Z,2.00
2019-05-29T21:44:06.895Z,2.20
2019-05-29T21:46:33.297Z,2.10
2019-05-29T21:48:59.646Z,1.95
2019-05-29T21:51:27.700Z,2.20
2019-05-29T21:53:53.919Z,2.20
2019-05-29T21:56:20.420Z,3.30
2019-05-29T21:58:59.947Z,2.80
2019-05-29T22:01:15.542Z,3.08
2019-05-29T22:03:42.397Z,2.85
2019-05-29T22:06:08.874Z,2.70
2019-05-29T22:08:35.297Z,2.42
2019-05-29T22:11:01.866Z,2.12
2019-05-29T22:13:28.167Z,2.30
2019-05-29T22:15:54.827Z,2.17
2019-05-29T22:18:21.414Z,2.52
2019-05-29T22:20:47.873Z,2.70
2019-05-29T22:23:14.411Z,2.70
2019-05-29T22:25:40.748Z,2.87
2019-05-29T22:28:07.313Z,3.20
2019-05-29T22:30:33.596Z,3.40
2019-05-29T22:32:59.967Z,2.83
2019-05-29T22:35:26.467Z,3.25
2019-05-29T22:37:53.506Z,3.58
2019-05-29T22:40:20.087Z,3.90
2019-05-29T22:42:46.347Z,3.35
2019-05-29T22:45:13.074Z,3.25
2019-05-29T22:47:39.419Z,2.87
2019-05-29T22:50:06.007Z,2.77
2019-05-29T22:52:32.285Z,2.60
2019-05-29T22:54:59.921Z,2.40
2019-05-29T22:57:26.473Z,2.67
2019-05-29T22:59:53.936Z,2.40
2019-05-29T23:02:20.324Z,2.55
2019-05-29T23:04:46.723Z,2.50
2019-05-29T23:07:13.266Z,2.60
2019-05-29T23:09:39.788Z,2.60
2019-05-29T23:12:05.974Z,2.60
2019-05-29T23:14:32.345Z,2.37
2019-05-29T23:16:58.815Z,2.50
2019-05-29T23:19:25.296Z,2.42
2019-05-29T23:21:52.384Z,2.27
2019-05-29T23:24:20.594Z,2.33
2019-05-29T23:26:46.968Z,2.40
2019-05-29T23:29:13.348Z,2.12
2019-05-29T23:31:39.970Z,2.47
2019-05-29T23:34:06.411Z,2.55
2019-05-29T23:36:32.729Z,2.58
2019-05-29T23:38:59.296Z,2.17
2019-05-29T23:41:25.685Z,2.27
2019-05-29T23:43:53.382Z,2.45
2019-05-29T23:46:19.754Z,2.20
2019-05-29T23:48:46.285Z,2.10
2019-05-29T23:51:12.660Z,2.08
2019-05-29T23:53:39.044Z,2.10
2019-05-29T23:56:05.497Z,2.12
2019-05-29T23:58:31.794Z,1.80
